createdAt,value
2022-09-26T00:01:36.438Z,4.90
2022-09-26T00:04:09.222Z,7.47
2022-09-26T00:06:37.423Z,8.23
2022-09-26T00:09:05.745Z,6.50
2022-09-26T00:11:35.623Z,4.83
2022-09-26T00:14:06.932Z,5.07
2022-09-26T00:16:35.376Z,5.77
2022-09-26T00:19:05.241Z,4.03
2022-09-26T00:21:34.525Z,9.23
2022-09-26T00:24:03.235Z,3.97
2022-09-26T00:26:33.493Z,12.07
2022-09-26T00:29:04.700Z,3.00
2022-09-26T00:31:34.624Z,4.90
2022-09-26T00:34:03.771Z,3.17
2022-09-26T00:36:38.410Z,7.20
2022-09-26T00:39:07.746Z,3.20
2022-09-26T00:41:37.019Z,5.27
2022-09-26T00:44:25.478Z,3.50
2022-09-26T00:46:53.853Z,4.93
2022-09-26T00:49:26.249Z,6.33
2022-09-26T00:51:58.826Z,3.43
2022-09-26T00:54:29.670Z,6.83
2022-09-26T00:57:04.323Z,5.83
2022-09-26T00:59:36.932Z,5.73
2022-09-26T01:02:05.740Z,10.70
2022-09-26T01:04:36.939Z,8.27
2022-09-26T01:07:10.711Z,10.53
2022-09-26T01:09:39.901Z,6.63
2022-09-26T01:12:10.278Z,5.67
2022-09-26T01:14:40.516Z,6.67
2022-09-26T01:17:09.645Z,8.40
2022-09-26T01:19:44.412Z,11.93
2022-09-26T01:22:38.865Z,6.57
2022-09-26T01:25:19.532Z,9.03
2022-09-26T01:28:01.437Z,10.77
2022-09-26T01:30:39.000Z,13.43
2022-09-26T01:33:30.474Z,13.03
2022-09-26T01:36:12.395Z,17.83
2022-09-26T01:38:53.846Z,11.67
2022-09-26T01:41:36.812Z,12.83
2022-09-26T01:44:17.689Z,6.23
2022-09-26T01:46:52.718Z,3.43
2022-09-26T01:49:26.487Z,7.27
2022-09-26T01:51:59.985Z,9.97
2022-09-26T01:54:35.475Z,10.17
2022-09-26T01:57:08.262Z,6.23
2022-09-26T01:59:41.166Z,9.57
2022-09-26T02:02:17.534Z,8.13
2022-09-26T02:04:50.395Z,7.60
2022-09-26T02:07:21.287Z,12.77
2022-09-26T02:09:53.275Z,20.57
2022-09-26T02:12:27.364Z,5.63
2022-09-26T02:14:58.673Z,10.53
2022-09-26T02:17:34.348Z,6.43
2022-09-26T02:20:06.907Z,10.17
2022-09-26T02:22:36.286Z,8.03
2022-09-26T02:25:05.547Z,13.80
2022-09-26T02:27:33.485Z,9.23
2022-09-26T02:30:01.786Z,9.53
2022-09-26T02:32:33.445Z,12.53
2022-09-26T02:35:22.457Z,8.23
2022-09-26T02:37:50.746Z,5.03
2022-09-26T02:40:20.401Z,19.10
2022-09-26T02:42:58.358Z,17.10
2022-09-26T02:45:34.161Z,10.77
2022-09-26T02:48:21.687Z,14.80
2022-09-26T02:51:01.916Z,9.43
2022-09-26T02:53:45.789Z,17.60
2022-09-26T02:56:23.579Z,18.57
2022-09-26T02:58:59.759Z,13.77
2022-09-26T03:01:33.716Z,17.23
2022-09-26T03:04:09.734Z,12.57
2022-09-26T03:06:43.204Z,14.00
2022-09-26T03:09:13.098Z,25.80
2022-09-26T03:11:43.237Z,11.53
2022-09-26T03:14:13.276Z,16.10
2022-09-26T03:16:45.295Z,12.23
2022-09-26T03:19:19.640Z,28.17
2022-09-26T03:21:47.930Z,20.00
2022-09-26T03:24:15.894Z,26.07
2022-09-26T03:26:44.526Z,14.27
2022-09-26T03:29:12.751Z,12.73
2022-09-26T03:31:40.873Z,25.80
2022-09-26T03:34:09.121Z,25.40
2022-09-26T03:36:40.015Z,15.43
2022-09-26T03:39:08.000Z,19.73
2022-09-26T03:41:35.972Z,17.50
2022-09-26T03:44:04.313Z,20.90
2022-09-26T03:46:35.059Z,24.77
2022-09-26T03:49:07.071Z,14.73
2022-09-26T03:51:35.206Z,10.70
2022-09-26T03:54:04.831Z,22.30
2022-09-26T03:56:32.871Z,19.67
2022-09-26T03:59:00.847Z,16.07
2022-09-26T04:01:29.028Z,17.33
2022-09-26T04:03:58.120Z,26.53
2022-09-26T04:06:26.063Z,19.33
2022-09-26T04:08:54.982Z,17.67
2022-09-26T04:11:25.645Z,11.93
2022-09-26T04:13:54.373Z,9.83
2022-09-26T04:16:24.206Z,21.47
2022-09-26T04:18:57.813Z,27.63
2022-09-26T04:21:27.428Z,18.73
2022-09-26T04:23:55.771Z,17.73
2022-09-26T04:26:25.252Z,16.60
2022-09-26T04:28:55.073Z,21.67
2022-09-26T04:31:24.057Z,15.40
2022-09-26T04:33:52.340Z,22.17
2022-09-26T04:36:20.256Z,8.30
2022-09-26T04:38:48.185Z,19.60
2022-09-26T04:41:17.548Z,16.83
2022-09-26T04:43:47.540Z,15.63
2022-09-26T04:46:21.264Z,7.93
2022-09-26T04:48:50.714Z,12.40
2022-09-26T04:51:19.712Z,15.50
2022-09-26T04:53:48.045Z,13.53
2022-09-26T04:56:17.034Z,11.13
2022-09-26T04:58:46.990Z,7.17
2022-09-26T05:01:17.518Z,19.77
2022-09-26T05:03:45.727Z,11.73
2022-09-26T05:06:14.823Z,12.20
2022-09-26T05:08:47.609Z,12.57
2022-09-26T05:11:17.770Z,4.43
2022-09-26T05:13:53.187Z,8.87
2022-09-26T05:16:22.745Z,11.23
2022-09-26T05:18:52.011Z,12.67
2022-09-26T05:21:20.670Z,10.90
2022-09-26T05:24:05.753Z,10.00
2022-09-26T05:26:41.771Z,9.47
2022-09-26T05:29:12.244Z,12.37
2022-09-26T05:31:40.678Z,7.00
2022-09-26T05:34:14.220Z,12.63
2022-09-26T05:36:42.899Z,12.10
2022-09-26T05:39:31.563Z,6.43
2022-09-26T05:41:59.507Z,11.47
2022-09-26T05:44:30.890Z,15.90
2022-09-26T05:46:59.376Z,11.83
2022-09-26T05:49:27.932Z,17.07
2022-09-26T05:51:55.884Z,15.03
2022-09-26T05:54:24.231Z,10.60
2022-09-26T05:56:52.096Z,9.30
2022-09-26T05:59:20.405Z,6.80
2022-09-26T06:01:49.909Z,8.80
2022-09-26T06:04:17.950Z,12.30
2022-09-26T06:06:46.064Z,10.33
2022-09-26T06:09:14.251Z,9.10
2022-09-26T06:11:42.509Z,11.23
2022-09-26T06:14:10.482Z,11.33
2022-09-26T06:16:38.573Z,15.43
2022-09-26T06:19:08.224Z,13.90
2022-09-26T06:21:38.311Z,10.73
2022-09-26T06:24:06.677Z,18.67
2022-09-26T06:26:37.759Z,16.47
2022-09-26T06:29:07.675Z,15.43
2022-09-26T06:31:36.030Z,20.03
2022-09-26T06:34:05.454Z,19.90
2022-09-26T06:36:35.913Z,16.50
2022-09-26T06:39:04.109Z,13.67
2022-09-26T06:41:32.052Z,16.90
2022-09-26T06:44:01.959Z,15.97
2022-09-26T06:46:31.574Z,16.50
2022-09-26T06:49:02.448Z,11.97
2022-09-26T06:51:31.970Z,12.03
2022-09-26T06:54:01.678Z,10.97
2022-09-26T06:56:29.770Z,11.73
2022-09-26T06:58:58.023Z,13.30
2022-09-26T07:01:26.108Z,15.37
2022-09-26T07:03:54.589Z,9.47
2022-09-26T07:06:22.555Z,14.20
2022-09-26T07:09:02.046Z,15.77
2022-09-26T07:11:50.635Z,12.33
2022-09-26T07:14:21.169Z,13.80
2022-09-26T07:16:52.557Z,19.03
2022-09-26T07:19:20.803Z,20.47
2022-09-26T07:21:49.952Z,16.73
2022-09-26T07:24:18.220Z,19.83
2022-09-26T07:26:47.672Z,18.47
2022-09-26T07:29:15.900Z,17.13
2022-09-26T07:31:44.150Z,21.83
2022-09-26T07:34:18.021Z,16.53
2022-09-26T07:36:47.672Z,19.57
2022-09-26T07:39:16.218Z,13.03
2022-09-26T07:41:46.014Z,19.37
2022-09-26T07:45:09.671Z,11.73
2022-09-26T07:47:21.110Z,20.60
2022-09-26T07:50:06.392Z,27.80
2022-09-26T07:52:34.245Z,16.97
2022-09-26T07:55:02.195Z,27.90
2022-09-26T07:57:33.298Z,20.17
2022-09-26T08:00:03.793Z,21.63
2022-09-26T08:02:34.677Z,19.60
2022-09-26T08:05:05.068Z,21.80
2022-09-26T08:07:35.649Z,20.07
2022-09-26T08:10:05.751Z,19.40
2022-09-26T08:12:37.211Z,15.70
2022-09-26T08:15:11.805Z,14.77
2022-09-26T08:17:39.758Z,19.47
2022-09-26T08:20:08.814Z,22.80
2022-09-26T08:22:36.832Z,22.17
2022-09-26T08:25:06.892Z,16.07
2022-09-26T08:27:35.626Z,19.90
2022-09-26T08:30:04.534Z,23.10
2022-09-26T08:32:34.049Z,20.43
2022-09-26T08:35:01.978Z,25.90
2022-09-26T08:37:31.354Z,18.37
2022-09-26T08:40:00.824Z,17.37
2022-09-26T08:42:42.092Z,16.67
2022-09-26T08:45:48.047Z,21.13
2022-09-26T08:48:39.708Z,21.63
2022-09-26T08:51:19.521Z,23.67
2022-09-26T08:53:52.474Z,24.23
2022-09-26T08:56:24.743Z,21.80
2022-09-26T08:58:56.065Z,23.10
2022-09-26T09:01:28.328Z,15.63
2022-09-26T09:04:03.568Z,13.93
2022-09-26T09:06:31.617Z,23.40
2022-09-26T09:09:00.095Z,25.30
2022-09-26T09:11:51.893Z,25.33
2022-09-26T09:14:34.411Z,18.53
2022-09-26T09:17:15.203Z,19.37
2022-09-26T09:19:54.348Z,19.50
2022-09-26T09:22:38.501Z,20.20
2022-09-26T09:25:16.107Z,10.47
2022-09-26T09:28:08.288Z,18.20
2022-09-26T09:30:43.655Z,16.90
2022-09-26T09:33:16.109Z,9.50
2022-09-26T09:35:50.988Z,17.33
2022-09-26T09:38:22.125Z,22.07
2022-09-26T09:40:57.817Z,14.47
2022-09-26T09:43:30.348Z,11.87
2022-09-26T09:46:05.591Z,15.17
2022-09-26T09:48:34.364Z,12.90
2022-09-26T09:51:14.517Z,20.10
2022-09-26T09:54:07.097Z,15.17
2022-09-26T09:56:49.123Z,14.90
2022-09-26T09:59:32.394Z,16.40
2022-09-26T10:02:19.452Z,17.13
2022-09-26T10:04:57.620Z,14.33
2022-09-26T10:07:27.796Z,14.50
2022-09-26T10:09:56.124Z,14.23
2022-09-26T10:12:29.736Z,9.70
2022-09-26T10:15:02.561Z,12.70
2022-09-26T10:17:31.264Z,11.73
2022-09-26T10:19:59.570Z,9.93
2022-09-26T10:22:37.195Z,14.77
2022-09-26T10:25:08.952Z,16.90
2022-09-26T10:27:38.970Z,21.53
2022-09-26T10:30:28.241Z,15.70
2022-09-26T10:32:59.419Z,10.53
2022-09-26T10:35:30.015Z,12.07
2022-09-26T10:38:09.040Z,13.10
2022-09-26T10:40:55.811Z,9.87
2022-09-26T10:43:32.110Z,11.10
2022-09-26T10:46:07.834Z,15.07
2022-09-26T10:48:48.546Z,14.53
2022-09-26T10:51:25.832Z,11.20
2022-09-26T10:54:04.853Z,14.60
2022-09-26T10:56:38.747Z,13.40
2022-09-26T10:59:10.291Z,13.50
2022-09-26T11:01:43.387Z,15.83
2022-09-26T11:04:36.096Z,15.10
2022-09-26T11:07:05.645Z,19.47
2022-09-26T11:09:36.457Z,16.07
2022-09-26T11:12:23.987Z,14.33
2022-09-26T11:14:57.977Z,13.63
2022-09-26T11:17:44.510Z,14.00
2022-09-26T11:20:20.884Z,15.03
2022-09-26T11:22:56.046Z,14.87
2022-09-26T11:25:29.635Z,8.87
2022-09-26T11:28:07.128Z,16.93
2022-09-26T11:30:39.077Z,19.43
2022-09-26T11:33:14.377Z,8.60
2022-09-26T11:35:52.982Z,10.53
2022-09-26T11:38:38.358Z,13.97
2022-09-26T11:41:36.682Z,12.00
2022-09-26T11:44:22.365Z,11.53
2022-09-26T11:47:06.729Z,11.93
2022-09-26T11:49:48.737Z,16.80
2022-09-26T11:52:33.345Z,14.10
2022-09-26T11:55:14.721Z,14.40
2022-09-26T11:57:50.315Z,15.40
2022-09-26T12:00:27.671Z,18.33
2022-09-26T12:03:24.306Z,21.30
2022-09-26T12:06:00.461Z,10.80
2022-09-26T12:08:48.379Z,15.67
2022-09-26T12:11:25.809Z,13.03
2022-09-26T12:14:02.175Z,11.97
2022-09-26T12:16:37.789Z,15.17
2022-09-26T12:19:16.907Z,9.47
2022-09-26T12:22:14.661Z,12.23
2022-09-26T12:24:51.829Z,12.33
2022-09-26T12:27:26.665Z,9.17
2022-09-26T12:30:04.770Z,10.97
2022-09-26T12:32:53.026Z,14.63
2022-09-26T12:35:34.192Z,9.63
2022-09-26T12:38:32.734Z,12.07
2022-09-26T12:41:14.647Z,10.47
2022-09-26T12:44:04.646Z,12.83
2022-09-26T12:46:46.919Z,12.20
2022-09-26T12:49:43.922Z,4.20
2022-09-26T12:52:27.776Z,9.10
2022-09-26T12:55:17.915Z,13.17
2022-09-26T12:58:00.797Z,7.03
2022-09-26T13:00:36.256Z,13.77
2022-09-26T13:03:46.767Z,10.40
2022-09-26T13:07:02.161Z,7.30
2022-09-26T13:09:55.177Z,5.60
2022-09-26T13:12:40.677Z,4.70
2022-09-26T13:15:21.844Z,4.97
2022-09-26T13:17:58.374Z,6.07
2022-09-26T13:20:33.352Z,8.03
2022-09-26T13:23:09.866Z,4.60
2022-09-26T13:25:49.320Z,8.30
2022-09-26T13:28:23.375Z,5.47
2022-09-26T13:30:58.743Z,9.27
2022-09-26T13:33:35.003Z,4.27
2022-09-26T13:36:04.711Z,7.47
2022-09-26T13:38:53.655Z,9.23
2022-09-26T13:41:30.798Z,9.33
2022-09-26T13:44:09.724Z,8.83
2022-09-26T13:46:50.355Z,11.17
2022-09-26T13:49:31.314Z,10.23
2022-09-26T13:52:11.606Z,14.47
2022-09-26T13:54:57.209Z,11.93
2022-09-26T13:57:32.783Z,9.03
2022-09-26T14:00:02.073Z,13.03
2022-09-26T14:02:32.083Z,8.87
2022-09-26T14:05:46.617Z,14.57
2022-09-26T14:08:53.202Z,9.27
2022-09-26T14:11:30.522Z,8.53
2022-09-26T14:14:24.772Z,14.57
2022-09-26T14:16:54.145Z,10.53
2022-09-26T14:19:32.936Z,14.80
2022-09-26T14:22:03.589Z,12.33
2022-09-26T14:24:37.186Z,13.63
2022-09-26T14:27:26.940Z,7.27
2022-09-26T14:30:00.784Z,12.43
2022-09-26T14:32:33.048Z,11.40
2022-09-26T14:35:03.171Z,8.73
2022-09-26T14:37:40.506Z,12.03
2022-09-26T14:40:20.767Z,9.43
2022-09-26T14:42:56.717Z,11.60
2022-09-26T14:45:27.695Z,6.60
2022-09-26T14:48:07.870Z,11.50
2022-09-26T14:50:48.520Z,9.67
2022-09-26T14:53:25.789Z,12.93
2022-09-26T14:55:58.640Z,12.30
2022-09-26T14:58:46.126Z,7.00
2022-09-26T15:01:19.662Z,10.43
2022-09-26T15:03:55.334Z,10.90
2022-09-26T15:06:24.559Z,8.43
2022-09-26T15:08:53.977Z,3.23
2022-09-26T15:11:31.543Z,8.77
2022-09-26T15:14:08.528Z,12.37
2022-09-26T15:16:43.189Z,9.63
2022-09-26T15:19:16.255Z,12.47
2022-09-26T15:21:47.331Z,9.73
2022-09-26T15:24:28.055Z,10.77
2022-09-26T15:26:58.739Z,15.40
2022-09-26T15:29:28.694Z,6.43
2022-09-26T15:31:57.634Z,13.33
2022-09-26T15:34:33.698Z,5.90
2022-09-26T15:37:04.419Z,7.77
2022-09-26T15:39:41.575Z,10.30
2022-09-26T15:42:45.937Z,13.13
2022-09-26T15:45:39.038Z,7.13
2022-09-26T15:48:27.443Z,10.03
2022-09-26T15:50:59.107Z,10.43
2022-09-26T15:53:34.607Z,6.03
2022-09-26T15:56:07.001Z,12.93
2022-09-26T15:58:38.093Z,13.17
2022-09-26T16:01:09.618Z,6.10
2022-09-26T16:03:55.251Z,6.33
2022-09-26T16:06:28.007Z,7.00
2022-09-26T16:09:00.814Z,6.87
2022-09-26T16:11:29.695Z,6.53
2022-09-26T16:13:58.240Z,6.60
2022-09-26T16:16:32.394Z,6.43
2022-09-26T16:19:03.446Z,9.77
2022-09-26T16:21:34.274Z,8.93
2022-09-26T16:24:28.104Z,7.60
2022-09-26T16:26:56.668Z,6.40
2022-09-26T16:29:33.051Z,6.13
2022-09-26T16:32:03.337Z,3.37
2022-09-26T16:34:32.086Z,5.67
2022-09-26T16:37:00.106Z,5.90
2022-09-26T16:39:30.356Z,5.97
2022-09-26T16:42:02.641Z,4.80
2022-09-26T16:44:35.846Z,5.87
2022-09-26T16:47:09.122Z,8.97
2022-09-26T16:49:46.934Z,7.07
2022-09-26T16:52:25.213Z,3.63
2022-09-26T16:54:53.476Z,5.53
2022-09-26T16:57:23.943Z,3.07
2022-09-26T16:59:53.020Z,3.63
2022-09-26T17:02:26.741Z,6.33
2022-09-26T17:04:55.460Z,3.67
2022-09-26T17:07:25.030Z,5.13
2022-09-26T17:09:53.044Z,5.40
2022-09-26T17:12:23.396Z,3.53
2022-09-26T17:14:53.283Z,3.37
2022-09-26T17:17:25.821Z,2.60
2022-09-26T17:19:59.341Z,5.27
2022-09-26T17:22:28.190Z,8.00
2022-09-26T17:24:56.395Z,3.67
2022-09-26T17:27:27.280Z,4.83
2022-09-26T17:30:01.712Z,5.57
2022-09-26T17:32:34.995Z,5.67
2022-09-26T17:35:05.666Z,7.97
2022-09-26T17:37:33.808Z,9.03
2022-09-26T17:40:02.438Z,6.80
2022-09-26T17:42:30.520Z,9.77
2022-09-26T17:44:58.476Z,8.40
2022-09-26T17:47:27.107Z,10.50
2022-09-26T17:49:57.402Z,7.50
2022-09-26T17:52:29.049Z,3.23
2022-09-26T17:55:00.007Z,5.40
2022-09-26T17:57:30.220Z,8.10
2022-09-26T17:59:59.028Z,15.10
2022-09-26T18:02:33.796Z,6.30
2022-09-26T18:05:18.998Z,6.80
2022-09-26T18:07:49.113Z,14.63
2022-09-26T18:10:20.545Z,10.67
2022-09-26T18:12:49.462Z,8.00
2022-09-26T18:15:21.166Z,9.77
2022-09-26T18:17:49.981Z,9.33
2022-09-26T18:20:21.043Z,5.10
2022-09-26T18:22:50.668Z,5.77
2022-09-26T18:25:21.879Z,4.70
2022-09-26T18:27:52.936Z,3.87
2022-09-26T18:30:23.887Z,11.20
2022-09-26T18:32:55.265Z,10.63
2022-09-26T18:35:27.762Z,6.60
2022-09-26T18:37:57.264Z,5.80
2022-09-26T18:40:26.966Z,5.10
2022-09-26T18:42:56.112Z,6.83
2022-09-26T18:45:28.746Z,6.87
2022-09-26T18:47:57.868Z,9.17
2022-09-26T18:50:34.340Z,7.33
2022-09-26T18:53:02.375Z,9.20
2022-09-26T18:55:47.426Z,7.17
2022-09-26T18:58:25.397Z,9.77
2022-09-26T19:00:56.893Z,13.50
2022-09-26T19:03:26.621Z,5.53
2022-09-26T19:06:03.116Z,10.43
2022-09-26T19:08:36.762Z,6.77
2022-09-26T19:11:13.308Z,10.77
2022-09-26T19:13:43.847Z,3.50
2022-09-26T19:16:12.333Z,9.17
2022-09-26T19:18:40.777Z,4.97
2022-09-26T19:21:18.760Z,6.83
2022-09-26T19:23:48.155Z,4.97
2022-09-26T19:26:26.024Z,9.77
2022-09-26T19:28:55.437Z,10.60
2022-09-26T19:31:23.711Z,13.57
2022-09-26T19:33:51.878Z,9.03
2022-09-26T19:36:22.112Z,7.03
2022-09-26T19:38:50.545Z,7.97
2022-09-26T19:41:18.572Z,7.97
2022-09-26T19:43:47.025Z,3.47
2022-09-26T19:46:21.130Z,12.37
2022-09-26T19:48:49.525Z,9.00
2022-09-26T19:51:18.687Z,3.43
2022-09-26T19:53:48.221Z,8.40
2022-09-26T19:56:16.278Z,5.27
2022-09-26T19:58:46.290Z,8.20
2022-09-26T20:01:16.954Z,3.67
2022-09-26T20:03:45.435Z,6.97
2022-09-26T20:06:16.256Z,4.53
2022-09-26T20:08:44.316Z,4.67
2022-09-26T20:11:13.862Z,6.67
2022-09-26T20:13:59.119Z,7.87
2022-09-26T20:16:27.843Z,6.90
2022-09-26T20:18:56.789Z,4.47
2022-09-26T20:21:28.575Z,6.80
2022-09-26T20:23:58.508Z,6.53
2022-09-26T20:26:29.705Z,8.03
2022-09-26T20:28:57.682Z,8.77
2022-09-26T20:31:27.889Z,8.30
2022-09-26T20:33:59.479Z,6.87
2022-09-26T20:36:30.709Z,7.90
2022-09-26T20:39:02.791Z,6.23
2022-09-26T20:41:35.676Z,7.33
2022-09-26T20:44:09.987Z,9.60
2022-09-26T20:46:40.907Z,5.37
2022-09-26T20:49:14.883Z,10.47
2022-09-26T20:51:44.848Z,6.57
2022-09-26T20:54:25.455Z,6.93
2022-09-26T20:56:55.851Z,7.20
2022-09-26T20:59:24.425Z,8.73
2022-09-26T21:01:54.480Z,7.17
2022-09-26T21:04:31.484Z,4.30
2022-09-26T21:06:59.704Z,11.10
2022-09-26T21:09:27.664Z,5.90
2022-09-26T21:11:57.176Z,9.50
2022-09-26T21:14:25.946Z,7.07
2022-09-26T21:16:54.092Z,9.33
2022-09-26T21:19:24.177Z,8.33
2022-09-26T21:21:52.942Z,7.13
2022-09-26T21:24:27.113Z,7.33
2022-09-26T21:26:56.636Z,8.80
2022-09-26T21:29:24.630Z,9.70
2022-09-26T21:31:58.570Z,7.70
2022-09-26T21:34:28.593Z,16.43
2022-09-26T21:36:59.567Z,6.20
2022-09-26T21:39:28.933Z,8.07
2022-09-26T21:42:03.004Z,14.10
2022-09-26T21:44:34.093Z,11.90
2022-09-26T21:47:01.975Z,11.70
2022-09-26T21:49:30.053Z,11.60
2022-09-26T21:52:03.170Z,11.57
2022-09-26T21:54:38.799Z,11.33
2022-09-26T21:57:11.161Z,6.77
2022-09-26T21:59:41.297Z,10.80
2022-09-26T22:02:09.337Z,16.00
2022-09-26T22:04:38.521Z,14.10
2022-09-26T22:07:06.532Z,12.33
2022-09-26T22:09:34.519Z,12.83
2022-09-26T22:12:03.072Z,12.70
2022-09-26T22:14:32.499Z,15.80
2022-09-26T22:17:00.573Z,11.33
2022-09-26T22:19:33.539Z,6.13
2022-09-26T22:22:01.832Z,12.27
2022-09-26T22:24:30.008Z,9.03
2022-09-26T22:26:58.306Z,14.23
2022-09-26T22:29:26.278Z,8.63
2022-09-26T22:31:55.650Z,11.90
2022-09-26T22:34:23.855Z,17.43
2022-09-26T22:36:52.144Z,13.47
2022-09-26T22:39:20.192Z,10.67
2022-09-26T22:41:48.343Z,15.97
2022-09-26T22:44:16.323Z,10.33
2022-09-26T22:46:44.344Z,17.23
2022-09-26T22:49:14.113Z,12.07
2022-09-26T22:51:42.239Z,13.00
2022-09-26T22:54:10.251Z,12.60
2022-09-26T22:56:38.317Z,14.70
2022-09-26T22:59:06.280Z,12.17
2022-09-26T23:01:34.370Z,13.77
2022-09-26T23:04:02.944Z,14.47
2022-09-26T23:06:33.173Z,8.33
2022-09-26T23:09:02.194Z,23.77
2022-09-26T23:11:31.706Z,16.60
2022-09-26T23:13:59.671Z,13.90
2022-09-26T23:16:28.746Z,9.30
2022-09-26T23:18:57.320Z,7.37
2022-09-26T23:21:27.350Z,14.13
2022-09-26T23:24:00.715Z,15.03
2022-09-26T23:26:32.644Z,11.33
2022-09-26T23:29:01.499Z,14.30
2022-09-26T23:31:30.371Z,9.00
2022-09-26T23:33:58.684Z,16.80
2022-09-26T23:36:26.773Z,13.47
2022-09-26T23:38:58.093Z,14.20
2022-09-26T23:41:26.348Z,10.90
2022-09-26T23:43:54.316Z,18.80
2022-09-26T23:46:22.319Z,15.87
2022-09-26T23:48:50.325Z,15.00
2022-09-26T23:51:18.371Z,15.50
2022-09-26T23:53:46.316Z,11.27
2022-09-26T23:56:16.811Z,17.67
2022-09-26T23:58:45.007Z,11.30
